• Join FlightAware (Why Join?)
  • Login
  • US Flag GB Flag 
05:07 EDT


 

Airport Tracker/Info


-or-


 

Live Flight TrackerFlight Track Log ✈ SWA862 ✈ 12-Apr-2013 ✈ KRDU - KBWI

Flight Track Log - Related Links

Times and Time Zones

All times are in EDT time to prevent confusion due to time zone crossing. See the SWA862 flight status page for this flight to view local times or setup timezone preferences in your user account.

Time Position Orientation Groundspeed Altitude Reporting Facility
EDT Latitude Longitude Course Direction KTS MPH feet Rate Location/Type
20:22 35.8431 -78.8283 227° Southwest 151 174 2,800  Level Washington Center
20:23 35.8531 -78.8492 301° West 212 244 3,400 3,780 Climbing Washington Center
20:24 35.9022 -78.8794 333° Northwest 212 244 7,700 3,420 Climbing Washington Center
20:25 35.9664 -78.8206 37° Northeast 215 247 10,300 2,940 Climbing Washington Center
20:26 36.0358 -78.7283 47° Northeast 299 344 13,600 3,420 Climbing Washington Center
20:27 36.1114 -78.6311 46° Northeast 332 382 17,200 3,720 Climbing Washington Center
20:28 36.1889 -78.5286 47° Northeast 376 433 21,100 2,880 Climbing Washington Center
20:29 36.2686 -78.4258 46° Northeast 402 463 23,000 900 Climbing Washington Center
20:30 36.3725 -78.3497 31° Northeast 426 490 23,000  Level Washington Center
20:31 36.4889 -78.2814 25° Northeast 432 497 23,000  Level Washington Center
20:32 36.6031 -78.2128 26° Northeast 442 509 23,000  Level Washington Center
20:33 36.7003 -78.1539 26° Northeast 442 509 23,000  Level Washington Center
20:34 36.8186 -78.0853 25° Northeast 447 514 23,000  Level Washington Center
20:35 36.9431 -78.0192 23° Northeast 458 527 23,000  Level Washington Center
20:36 37.0842 -77.9583 19° North 476 548 23,000  Level Washington Center
20:37 37.2064 -77.8919 23° Northeast 476 548 23,000  Level Washington Center
20:38 37.3247 -77.8144 28° Northeast 476 548 23,000  Level Washington Center
20:39 37.4469 -77.7369 27° Northeast 476 548 23,000  Level Washington Center
20:40 37.5694 -77.6617 26° Northeast 476 548 23,000  Level Washington Center
20:41 37.6894 -77.5836 27° Northeast 476 548 23,000  Level Washington Center
20:42 37.7992 -77.5156 26° Northeast 476 548 23,000  Level Washington Center
20:43 37.9214 -77.4344 28° Northeast 481 554 23,000  Level Washington Center
20:44 38.0456 -77.3558 26° Northeast 481 554 23,000 -1,260 Level Washington Center
20:45 38.1656 -77.2794 27° Northeast 481 554 20,500 -2,880 Descending Washington Center
20:46 38.2833 -77.2025 27° Northeast 476 548 17,300 -2,700 Descending Washington Center
20:47 38.4075 -77.1178 28° Northeast 464 534 15,200 -1,200 Descending Washington Center
20:48 38.4731 -77.0344 45° Northeast 418 481 14,900 -300 Descending Washington Center
20:49 38.5567 -77.0147 10° North 350 403 14,700 -720 Descending Washington Center
20:50 38.6119 -76.9256 52° Northeast 313 360 13,500 -1,260 Descending Washington Center
20:50 38.6333 -76.8833 57° Northeast 314 361 12,900 -1,200 Descending Potomac TRACON
20:51 38.6589 -76.8358 55° Northeast 306 352 12,300 -1,140 Descending Washington Center
20:52 38.7242 -76.7783 34° Northeast 292 336 11,200 -1,440 Descending Washington Center
20:53 38.7789 -76.7153 42° Northeast 275 316 9,500 -1,620 Descending Washington Center
20:54 38.7922 -76.6197 80° East 255 293 8,000 -1,500 Descending Washington Center
20:54 38.8000 -76.5667 79° East 271 312 7,300 -1,500 Descending Potomac TRACON
20:55 38.8667 -76.5500 11° North 241 277 5,800 -1,500 Descending Potomac TRACON
20:56 38.9333 -76.5667 349° North 229 264 4,300 -900 Descending Potomac TRACON
20:57 38.9833 -76.6167 322° Northwest 219 252 4,000 -180 Descending Potomac TRACON
20:58 39.0167 -76.6833 303° West 216 249 4,000 -120 Level Potomac TRACON
20:59 39.0333 -76.7500 288° West 231 266 3,800 -300 Descending Potomac TRACON
21:00 39.0667 -76.8167 303° West 189 217 3,400 -420 Descending Potomac TRACON
21:01 39.0833 -76.8667 293° West 167 192 3,000 -420 Descending Potomac TRACON
21:02 39.1167 -76.9167 311° West 177 204 2,600 -540 Descending Potomac TRACON
21:03 39.1500 -76.9167 360° North 171 197 2,000 -360 Descending Potomac TRACON
21:04 39.1833 -76.8500 57° Northeast 185 213 2,000  Level Potomac TRACON
21:05 39.1833 -76.8000 90° East 165 190 2,000 -540 Level Potomac TRACON
21:06 39.1833 -76.7500 90° East 142 163 1,000 -780 Descending Potomac TRACON
21:07 39.1833 -76.7000 90° East 127 146 500 -540 Descending Potomac TRACON